Time;durP1;ratioP1;P1;durP2;ratioP2;P2;SDS_P1;SDS_P2;PMS_P1;PMS_P2;Temp;Humidity;BMP_temperature;BMP_pressure;BME280_temperature;BME280_humidity;BME280_pressure;Samples;Min_cycle;Max_cycle;Signal;HPM_P1;HPM_P2
2023/08/27 00:01:06;;;;;;;6.40;5.13;;;16.50;99.90;;;;;;5010617;28;20525;-67
2023/08/27 00:03:33;;;;;;;7.80;6.70;;;16.50;99.90;;;;;;5013066;28;20857;-67
2023/08/27 00:06:00;;;;;;;8.07;6.00;;;16.50;99.90;;;;;;5013073;28;20421;-68
2023/08/27 00:08:28;;;;;;;6.00;5.40;;;16.50;99.90;;;;;;5012373;28;20462;-67
2023/08/27 00:10:58;;;;;;;7.27;4.80;;;16.50;99.90;;;;;;5012273;28;20470;-68
2023/08/27 00:13:24;;;;;;;5.60;4.70;;;16.50;99.90;;;;;;5012780;28;20465;-67
2023/08/27 00:15:51;;;;;;;6.60;5.00;;;16.40;99.90;;;;;;5012665;28;20473;-68
2023/08/27 00:18:18;;;;;;;5.27;4.30;;;16.50;99.90;;;;;;5012255;28;20462;-68
2023/08/27 00:20:46;;;;;;;6.73;4.17;;;16.40;99.90;;;;;;5012716;28;20529;-67
2023/08/27 00:23:13;;;;;;;4.50;4.10;;;16.40;99.90;;;;;;5011613;28;20936;-67
2023/08/27 00:25:43;;;;;;;7.87;4.90;;;16.40;99.90;;;;;;5009570;28;20510;-67
2023/08/27 00:28:11;;;;;;;6.93;5.07;;;16.30;99.90;;;;;;5012489;28;20524;-67
2023/08/27 00:30:38;;;;;;;8.50;5.40;;;16.30;99.90;;;;;;5012139;28;20452;-68
2023/08/27 00:33:05;;;;;;;13.70;5.20;;;16.20;99.90;;;;;;5012130;28;20454;-68
2023/08/27 00:35:32;;;;;;;7.63;5.87;;;16.20;99.90;;;;;;5012203;28;20520;-68
2023/08/27 00:37:58;;;;;;;12.33;5.30;;;16.20;99.90;;;;;;5011165;28;20458;-68
2023/08/27 00:40:28;;;;;;;8.20;5.90;;;16.10;99.90;;;;;;5006611;28;20506;-68
2023/08/27 00:42:56;;;;;;;7.00;5.33;;;16.10;99.90;;;;;;5012407;28;20499;-68
2023/08/27 00:45:23;;;;;;;7.60;5.27;;;16.10;99.90;;;;;;5012507;28;20446;-67
2023/08/27 00:47:50;;;;;;;11.20;6.07;;;16.00;99.90;;;;;;5011668;28;20516;-68
2023/08/27 00:50:17;;;;;;;7.20;5.63;;;15.90;99.90;;;;;;5012114;28;20437;-68
2023/08/27 00:52:44;;;;;;;10.03;6.50;;;15.90;99.90;;;;;;5011209;28;20433;-68
2023/08/27 00:55:10;;;;;;;8.70;6.10;;;15.80;99.90;;;;;;5012456;28;20540;-68
2023/08/27 00:57:39;;;;;;;8.00;6.10;;;15.80;99.90;;;;;;5011893;28;20461;-68
2023/08/27 01:00:09;;;;;;;10.70;6.00;;;15.80;99.90;;;;;;5011669;28;20951;-68
2023/08/27 01:02:37;;;;;;;16.63;6.07;;;15.80;99.90;;;;;;5009234;28;20468;-68
2023/08/27 01:05:05;;;;;;;12.50;6.40;;;15.80;99.90;;;;;;5011565;28;20459;-68
2023/08/27 01:07:37;;;;;;;8.93;5.83;;;15.80;99.90;;;;;;5011808;28;20470;-67
2023/08/27 01:10:11;;;;;;;11.90;5.90;;;15.70;99.90;;;;;;5007021;28;20511;-67
2023/08/27 01:12:48;;;;;;;7.20;6.07;;;15.80;99.90;;;;;;5011861;28;20430;-67
2023/08/27 01:15:17;;;;;;;10.13;6.30;;;15.80;99.90;;;;;;5007864;28;20908;-68
2023/08/27 01:17:45;;;;;;;9.87;5.70;;;15.80;99.90;;;;;;5011110;28;21050;-67
2023/08/27 01:20:12;;;;;;;7.53;5.80;;;15.80;99.90;;;;;;5011706;28;20474;-68
2023/08/27 01:22:40;;;;;;;12.77;5.53;;;15.80;99.90;;;;;;5011649;28;20436;-68
2023/08/27 01:25:08;;;;;;;8.03;5.80;;;15.80;99.90;;;;;;5006082;28;20937;-69
2023/08/27 01:27:41;;;;;;;12.73;6.43;;;15.80;99.90;;;;;;5008435;28;20437;-68
2023/08/27 01:30:15;;;;;;;7.87;6.20;;;15.80;99.90;;;;;;5011569;28;20470;-68
2023/08/27 01:32:47;;;;;;;9.20;5.57;;;15.80;99.90;;;;;;5009248;28;20444;-68
2023/08/27 01:35:15;;;;;;;6.90;5.67;;;15.80;99.90;;;;;;5010553;28;20519;-68
2023/08/27 01:37:43;;;;;;;8.30;6.37;;;15.80;99.90;;;;;;5008364;28;20950;-69
2023/08/27 01:40:10;;;;;;;6.50;5.80;;;15.80;99.90;;;;;;5006632;28;20536;-69
2023/08/27 01:42:37;;;;;;;10.90;5.63;;;15.80;99.90;;;;;;5006293;28;20487;-68
2023/08/27 01:45:05;;;;;;;7.33;5.43;;;15.80;99.90;;;;;;5011728;28;20417;-69
2023/08/27 01:47:32;;;;;;;8.10;5.87;;;15.80;99.90;;;;;;5008590;28;20462;-69
2023/08/27 01:49:59;;;;;;;6.37;5.63;;;15.70;99.90;;;;;;5007953;28;20436;-68
2023/08/27 01:52:25;;;;;;;9.40;5.73;;;15.70;99.90;;;;;;5009459;28;20462;-68
2023/08/27 01:54:53;;;;;;;6.53;5.50;;;15.70;99.90;;;;;;5008662;28;20617;-68
2023/08/27 01:57:20;;;;;;;7.80;5.53;;;15.70;99.90;;;;;;5008377;28;20425;-69
2023/08/27 01:59:46;;;;;;;7.53;6.27;;;15.70;99.90;;;;;;5006511;28;20429;-67
2023/08/27 02:02:13;;;;;;;6.80;5.53;;;15.70;99.90;;;;;;5008656;28;20917;-66
2023/08/27 02:04:40;;;;;;;9.17;6.27;;;15.60;99.90;;;;;;5010664;28;20450;-66
2023/08/27 02:07:06;;;;;;;7.70;5.47;;;15.70;99.90;;;;;;5008410;28;20475;-66
2023/08/27 02:09:33;;;;;;;7.50;5.80;;;15.60;99.90;;;;;;5011058;28;20450;-69
2023/08/27 02:12:01;;;;;;;7.63;6.17;;;15.70;99.90;;;;;;5009808;28;20445;-66
2023/08/27 02:14:27;;;;;;;10.60;6.90;;;15.70;99.90;;;;;;5010319;28;20489;-66
2023/08/27 02:16:54;;;;;;;7.90;6.00;;;15.70;99.90;;;;;;5008702;28;20462;-67
2023/08/27 02:19:21;;;;;;;6.70;6.00;;;15.70;99.90;;;;;;5009586;28;20982;-66
2023/08/27 02:21:47;;;;;;;10.00;6.37;;;15.70;99.90;;;;;;5004676;28;20455;-66
2023/08/27 02:24:14;;;;;;;8.33;5.90;;;15.60;99.90;;;;;;5010782;28;20443;-66
2023/08/27 02:26:41;;;;;;;8.03;6.47;;;15.50;99.90;;;;;;5005779;28;20998;-67
2023/08/27 02:29:08;;;;;;;8.40;5.83;;;15.50;99.90;;;;;;5010121;28;20432;-66
2023/08/27 02:31:35;;;;;;;6.93;5.80;;;15.50;99.90;;;;;;5010579;28;20437;-66
2023/08/27 02:34:03;;;;;;;7.03;5.87;;;15.60;99.90;;;;;;5010420;28;20981;-66
2023/08/27 02:36:29;;;;;;;11.57;6.37;;;15.50;99.90;;;;;;5006056;28;20934;-66
2023/08/27 02:38:56;;;;;;;7.10;5.80;;;15.50;99.90;;;;;;5007892;28;20429;-66
2023/08/27 02:41:22;;;;;;;8.37;6.20;;;15.60;99.90;;;;;;5010253;28;20453;-67
2023/08/27 02:43:49;;;;;;;8.50;5.80;;;15.60;99.90;;;;;;5010510;28;20450;-67
2023/08/27 02:46:17;;;;;;;6.60;5.67;;;15.50;99.90;;;;;;5011936;28;20450;-66
2023/08/27 02:48:43;;;;;;;9.27;5.90;;;15.50;99.90;;;;;;5014292;28;20454;-67
2023/08/27 02:51:10;;;;;;;8.73;5.83;;;15.40;99.90;;;;;;5013593;28;20868;-67
2023/08/27 02:53:37;;;;;;;9.07;5.70;;;15.40;99.90;;;;;;5009118;28;20432;-67
2023/08/27 02:56:04;;;;;;;10.13;6.00;;;15.40;99.90;;;;;;5013670;28;20999;-67
2023/08/27 02:58:30;;;;;;;8.67;6.00;;;15.30;99.90;;;;;;5014459;28;20454;-67
2023/08/27 03:00:57;;;;;;;10.53;6.27;;;15.30;99.90;;;;;;5013787;28;20817;-67
2023/08/27 03:03:25;;;;;;;10.30;5.93;;;15.30;99.90;;;;;;5007223;28;20458;-67
2023/08/27 03:05:52;;;;;;;7.57;6.00;;;15.30;99.90;;;;;;5012063;28;20433;-67
2023/08/27 03:08:18;;;;;;;8.73;5.60;;;15.20;99.90;;;;;;5014361;28;20425;-67
2023/08/27 03:10:45;;;;;;;6.70;6.10;;;15.20;99.90;;;;;;5008690;28;20524;-67
2023/08/27 03:13:12;;;;;;;8.17;6.63;;;15.20;99.90;;;;;;5012074;28;20450;-67
2023/08/27 03:15:38;;;;;;;15.40;6.57;;;15.30;99.90;;;;;;5012799;28;20560;-67
2023/08/27 03:18:06;;;;;;;11.40;5.80;;;15.20;99.90;;;;;;5014072;28;21150;-67
2023/08/27 03:20:34;;;;;;;13.27;6.20;;;15.30;99.90;;;;;;5013611;28;20519;-67
2023/08/27 03:23:00;;;;;;;6.90;5.50;;;15.30;99.90;;;;;;5012093;28;20450;-67
2023/08/27 03:25:27;;;;;;;11.57;6.33;;;15.30;99.90;;;;;;5012723;28;20450;-67
2023/08/27 03:27:53;;;;;;;7.03;5.60;;;15.30;99.90;;;;;;5012416;28;20467;-67
2023/08/27 03:30:20;;;;;;;10.70;6.10;;;15.30;99.90;;;;;;5013893;28;20441;-67
2023/08/27 03:32:47;;;;;;;7.57;6.53;;;15.30;99.90;;;;;;5007935;28;20937;-67
2023/08/27 03:35:12;;;;;;;6.90;5.90;;;15.30;99.90;;;;;;5012260;28;20457;-67
2023/08/27 03:37:40;;;;;;;8.50;5.93;;;15.30;99.90;;;;;;5013904;28;20471;-67
2023/08/27 03:40:09;;;;;;;8.60;6.73;;;15.30;99.90;;;;;;5013384;28;20274;-67
2023/08/27 03:42:35;;;;;;;7.23;5.80;;;15.30;99.90;;;;;;5011681;28;20479;-67
2023/08/27 03:45:02;;;;;;;6.80;5.90;;;15.30;99.90;;;;;;5012866;28;20456;-67
2023/08/27 03:47:29;;;;;;;9.37;5.70;;;15.30;99.90;;;;;;5013108;28;20424;-67
2023/08/27 03:49:55;;;;;;;8.30;6.47;;;15.30;99.90;;;;;;5013303;28;20988;-67
2023/08/27 03:52:22;;;;;;;7.37;6.53;;;15.30;99.90;;;;;;5012947;28;20467;-67
2023/08/27 03:54:50;;;;;;;7.83;5.70;;;15.30;99.90;;;;;;5012942;28;20465;-67
2023/08/27 03:57:16;;;;;;;7.70;6.50;;;15.20;99.90;;;;;;5010414;28;20479;-67
2023/08/27 03:59:43;;;;;;;11.23;6.50;;;15.20;99.90;;;;;;5013340;28;20452;-67
2023/08/27 04:02:10;;;;;;;7.50;6.30;;;15.20;99.90;;;;;;5012618;28;20481;-67
2023/08/27 04:04:37;;;;;;;7.20;6.30;;;15.20;99.90;;;;;;5013272;28;20454;-67
2023/08/27 04:07:04;;;;;;;7.17;6.40;;;15.20;99.90;;;;;;5012432;28;20537;-67
2023/08/27 04:09:31;;;;;;;9.07;7.17;;;15.10;99.90;;;;;;5013262;28;20425;-67
2023/08/27 04:11:59;;;;;;;8.20;6.80;;;15.10;99.90;;;;;;5006388;28;20875;-67
2023/08/27 04:14:25;;;;;;;12.40;7.03;;;15.10;99.90;;;;;;5012561;28;20489;-67
2023/08/27 04:16:52;;;;;;;9.43;6.97;;;15.10;99.90;;;;;;5011624;28;20428;-67
2023/08/27 04:19:18;;;;;;;8.83;6.53;;;15.10;99.90;;;;;;5011421;28;20484;-67
2023/08/27 04:21:45;;;;;;;11.50;7.00;;;15.10;99.90;;;;;;5012831;28;20495;-67
2023/08/27 04:24:12;;;;;;;8.90;6.73;;;15.10;99.90;;;;;;5012768;28;20425;-67
2023/08/27 04:26:38;;;;;;;8.97;6.13;;;15.10;99.90;;;;;;5012140;28;20848;-67
2023/08/27 04:29:07;;;;;;;8.00;6.47;;;15.10;99.90;;;;;;5010557;28;20481;-67
2023/08/27 04:31:33;;;;;;;10.20;6.60;;;15.10;99.90;;;;;;5011892;28;20974;-67
2023/08/27 04:34:00;;;;;;;8.97;6.17;;;15.10;99.90;;;;;;5012980;28;20420;-66
2023/08/27 04:36:26;;;;;;;8.20;5.83;;;15.10;99.90;;;;;;5012051;28;20465;-67
2023/08/27 04:38:53;;;;;;;7.70;5.90;;;15.10;99.90;;;;;;5008210;28;20426;-67
2023/08/27 04:41:20;;;;;;;8.87;6.43;;;15.00;99.90;;;;;;5010361;28;20495;-67
2023/08/27 04:43:46;;;;;;;8.90;6.37;;;15.00;99.90;;;;;;5011877;28;20873;-67
2023/08/27 04:46:14;;;;;;;9.17;6.67;;;15.00;99.90;;;;;;5012097;28;20915;-67
2023/08/27 04:48:41;;;;;;;11.77;6.73;;;14.90;99.90;;;;;;5012614;28;20421;-67
2023/08/27 04:51:07;;;;;;;6.57;5.97;;;14.90;99.90;;;;;;5012009;28;20466;-67
2023/08/27 04:53:34;;;;;;;9.47;6.60;;;14.90;99.90;;;;;;5008485;28;20433;-67
2023/08/27 04:56:01;;;;;;;6.57;5.97;;;14.90;99.90;;;;;;5011145;28;20499;-67
2023/08/27 04:58:27;;;;;;;7.73;5.80;;;14.90;99.90;;;;;;5012079;28;20475;-67
2023/08/27 05:00:54;;;;;;;7.57;6.77;;;14.90;99.90;;;;;;5008803;28;20515;-67
2023/08/27 05:03:23;;;;;;;8.83;6.10;;;14.90;99.90;;;;;;5010116;28;20428;-67
2023/08/27 05:05:52;;;;;;;8.50;5.60;;;14.90;99.90;;;;;;5007315;28;20425;-67
2023/08/27 05:08:19;;;;;;;6.80;6.00;;;14.90;99.90;;;;;;5014717;28;20833;-67
2023/08/27 05:10:46;;;;;;;9.30;7.57;;;14.90;99.90;;;;;;5011588;28;20889;-67
2023/08/27 05:13:12;;;;;;;10.93;6.23;;;14.90;99.90;;;;;;5010777;28;20431;-67
2023/08/27 05:15:39;;;;;;;8.53;6.20;;;14.90;99.90;;;;;;5005623;28;20456;-67
2023/08/27 05:18:06;;;;;;;11.40;6.27;;;14.90;99.90;;;;;;5012013;28;20447;-67
2023/08/27 05:20:34;;;;;;;8.77;6.73;;;15.00;99.90;;;;;;5011299;28;20490;-67
2023/08/27 05:23:01;;;;;;;8.33;6.80;;;15.00;99.90;;;;;;5011509;28;20481;-67
2023/08/27 05:25:27;;;;;;;8.13;6.70;;;15.00;99.90;;;;;;5006845;28;20438;-68
2023/08/27 05:27:54;;;;;;;13.17;7.20;;;15.00;99.90;;;;;;5001346;28;20451;-67
2023/08/27 05:30:21;;;;;;;7.77;6.60;;;15.00;99.90;;;;;;5009036;28;20486;-67
2023/08/27 05:32:48;;;;;;;8.40;6.67;;;15.00;99.90;;;;;;5004196;28;20421;-67
2023/08/27 05:35:14;;;;;;;9.47;6.67;;;15.00;99.90;;;;;;5007444;28;20541;-67
2023/08/27 05:37:42;;;;;;;10.30;6.33;;;15.00;99.90;;;;;;5011299;28;20497;-66
2023/08/27 05:40:10;;;;;;;7.47;6.00;;;15.10;99.90;;;;;;5010847;28;20492;-66
2023/08/27 05:42:36;;;;;;;9.43;6.60;;;15.10;99.90;;;;;;5009140;28;20553;-66
2023/08/27 05:45:04;;;;;;;12.17;6.27;;;15.10;99.90;;;;;;5008885;28;20468;-66
2023/08/27 05:47:31;;;;;;;11.43;7.23;;;15.20;99.90;;;;;;5009574;28;20525;-66
2023/08/27 05:49:58;;;;;;;8.60;6.80;;;15.20;99.90;;;;;;5010342;28;20442;-66
2023/08/27 05:52:24;;;;;;;6.70;6.10;;;15.20;99.90;;;;;;5010573;28;20424;-65
2023/08/27 05:54:52;;;;;;;13.93;6.57;;;15.20;99.90;;;;;;5010820;28;20467;-66
2023/08/27 05:57:19;;;;;;;6.90;6.17;;;15.20;99.90;;;;;;5007993;28;20475;-66
2023/08/27 05:59:45;;;;;;;11.30;6.37;;;15.20;99.90;;;;;;5009163;28;20844;-66
2023/08/27 06:02:13;;;;;;;8.20;6.10;;;15.20;99.90;;;;;;5010572;28;21024;-66
2023/08/27 06:04:40;;;;;;;9.90;6.23;;;15.30;99.90;;;;;;5011125;28;20425;-66
2023/08/27 06:07:07;;;;;;;8.10;6.30;;;15.30;99.90;;;;;;5007505;28;20437;-66
2023/08/27 06:09:34;;;;;;;12.10;6.30;;;15.40;99.90;;;;;;5010773;28;20450;-66
2023/08/27 06:12:02;;;;;;;8.70;5.70;;;15.40;99.90;;;;;;5005136;28;20831;-66
2023/08/27 06:14:29;;;;;;;8.00;5.43;;;15.50;99.90;;;;;;5017279;28;20440;-66
2023/08/27 06:16:55;;;;;;;10.70;5.47;;;15.50;99.90;;;;;;5002209;28;21046;-66
2023/08/27 06:19:22;;;;;;;9.53;5.20;;;15.50;99.90;;;;;;5011014;28;20424;-66
2023/08/27 06:21:49;;;;;;;12.40;5.50;;;15.60;99.90;;;;;;5009692;28;20469;-66
2023/08/27 06:24:15;;;;;;;9.40;5.13;;;15.70;99.90;;;;;;5011053;28;20425;-66
2023/08/27 06:26:42;;;;;;;5.50;4.80;;;15.80;99.90;;;;;;5009933;28;20433;-66
2023/08/27 06:29:10;;;;;;;5.57;5.07;;;15.90;99.90;;;;;;5008310;28;20466;-66
2023/08/27 06:31:36;;;;;;;10.10;5.57;;;15.90;99.90;;;;;;5007177;28;20502;-65
2023/08/27 06:34:03;;;;;;;8.17;6.13;;;16.00;99.90;;;;;;5004342;28;20529;-66
2023/08/27 06:36:30;;;;;;;11.37;6.20;;;16.10;99.90;;;;;;5008429;28;21007;-66
2023/08/27 06:38:57;;;;;;;7.13;5.80;;;16.20;99.90;;;;;;5001382;28;20489;-66
2023/08/27 06:41:23;;;;;;;6.20;5.60;;;16.20;99.90;;;;;;5007827;28;20509;-65
2023/08/27 06:43:50;;;;;;;9.10;6.20;;;16.40;99.90;;;;;;5010961;28;20421;-66
2023/08/27 06:46:18;;;;;;;6.83;6.17;;;16.40;99.90;;;;;;5007367;28;20433;-66
2023/08/27 06:48:44;;;;;;;8.50;6.37;;;16.50;99.90;;;;;;5004819;28;20433;-66
2023/08/27 06:51:11;;;;;;;7.20;6.40;;;16.60;99.90;;;;;;5010416;28;20433;-66
2023/08/27 06:53:38;;;;;;;8.10;6.20;;;16.60;99.90;;;;;;5005566;28;20451;-66
2023/08/27 06:56:05;;;;;;;11.80;6.60;;;16.50;99.90;;;;;;5010343;28;21045;-66
2023/08/27 06:58:31;;;;;;;13.80;7.37;;;16.50;99.90;;;;;;5003406;28;20841;-66
2023/08/27 07:00:58;;;;;;;9.00;6.47;;;16.40;99.90;;;;;;5010285;28;20445;-66
2023/08/27 07:03:26;;;;;;;11.80;7.60;;;16.40;99.90;;;;;;5009520;28;20876;-66
2023/08/27 07:05:53;;;;;;;11.57;7.60;;;16.40;99.90;;;;;;5010612;28;20417;-66
2023/08/27 07:08:20;;;;;;;10.83;7.57;;;16.70;99.90;;;;;;5008190;28;20433;-65
2023/08/27 07:10:46;;;;;;;11.10;7.23;;;16.90;99.90;;;;;;5009396;28;20538;-65
2023/08/27 07:13:13;;;;;;;10.00;7.33;;;17.10;99.90;;;;;;5005478;28;20967;-65
2023/08/27 07:15:40;;;;;;;11.33;7.50;;;17.20;99.90;;;;;;5005474;28;20502;-65
2023/08/27 07:18:06;;;;;;;8.77;7.10;;;17.20;99.90;;;;;;5003255;28;20508;-65
2023/08/27 07:20:35;;;;;;;12.27;7.50;;;17.20;99.90;;;;;;5009512;28;20528;-64
2023/08/27 07:23:02;;;;;;;11.83;7.17;;;17.00;99.90;;;;;;5005190;28;20981;-65
2023/08/27 07:25:29;;;;;;;8.20;7.37;;;16.90;99.90;;;;;;5003075;28;20528;-65
2023/08/27 07:27:56;;;;;;;9.90;8.17;;;16.70;99.90;;;;;;5009364;28;20520;-65
2023/08/27 07:30:22;;;;;;;13.90;7.47;;;16.60;99.90;;;;;;5009113;28;20491;-64
2023/08/27 07:32:51;;;;;;;8.33;7.53;;;16.60;99.90;;;;;;5010635;28;21328;-66
2023/08/27 07:35:17;;;;;;;12.40;7.90;;;16.50;99.90;;;;;;5011661;28;20853;-65
2023/08/27 07:37:45;;;;;;;9.33;7.20;;;16.50;99.90;;;;;;5004541;28;20495;-65
2023/08/27 07:40:12;;;;;;;11.20;7.43;;;16.40;99.90;;;;;;5008425;28;20521;-65
2023/08/27 07:42:39;;;;;;;10.20;7.33;;;16.40;99.90;;;;;;5012922;28;20432;-65
2023/08/27 07:45:07;;;;;;;7.37;6.67;;;16.40;99.90;;;;;;5011758;28;20417;-65
2023/08/27 07:47:34;;;;;;;12.43;7.00;;;16.40;99.90;;;;;;5012683;28;20516;-65
2023/08/27 07:50:01;;;;;;;7.50;6.67;;;16.40;99.90;;;;;;5010700;28;20515;-66
2023/08/27 07:52:27;;;;;;;15.30;6.50;;;16.50;99.90;;;;;;5012355;28;20505;-65
2023/08/27 07:54:55;;;;;;;14.87;11.37;;;16.60;99.90;;;;;;5012921;28;20491;-66
2023/08/27 07:57:22;;;;;;;125.83;54.83;;;16.70;99.90;;;;;;5012318;28;20486;-65
2023/08/27 07:59:51;;;;;;;6.63;4.60;;;16.80;99.90;;;;;;5010786;28;20940;-67
2023/08/27 08:02:17;;;;;;;6.87;5.30;;;16.80;99.90;;;;;;5002696;28;20458;-66
2023/08/27 08:04:44;;;;;;;7.17;4.97;;;16.80;99.90;;;;;;5012409;28;20462;-66
2023/08/27 08:07:11;;;;;;;10.47;5.40;;;16.90;99.90;;;;;;5012643;28;20425;-67
2023/08/27 08:09:37;;;;;;;8.70;4.57;;;17.00;99.90;;;;;;5004665;28;20488;-67
2023/08/27 08:12:07;;;;;;;7.67;5.07;;;17.20;99.90;;;;;;5007147;28;20540;-67
2023/08/27 08:14:34;;;;;;;6.10;4.07;;;17.30;99.90;;;;;;5011951;28;21138;-67
2023/08/27 08:17:01;;;;;;;4.90;4.30;;;17.40;99.90;;;;;;5007733;28;20491;-67
2023/08/27 08:19:27;;;;;;;5.33;3.30;;;17.50;99.90;;;;;;5010329;28;20455;-67
2023/08/27 08:21:54;;;;;;;9.23;3.23;;;17.60;99.90;;;;;;5005868;28;20792;-67
2023/08/27 08:24:20;;;;;;;3.27;2.97;;;17.70;99.90;;;;;;5011875;28;20455;-67
2023/08/27 08:26:49;;;;;;;3.00;2.50;;;17.70;99.90;;;;;;5011398;28;20517;-66
2023/08/27 08:29:17;;;;;;;3.73;3.27;;;17.70;99.90;;;;;;5012670;28;20464;-67
2023/08/27 08:31:44;;;;;;;5.83;2.97;;;17.80;99.90;;;;;;5012131;28;20466;-67
2023/08/27 08:34:10;;;;;;;2.90;2.70;;;17.90;99.90;;;;;;5012630;28;20493;-67
2023/08/27 08:36:37;;;;;;;6.07;2.90;;;18.10;99.90;;;;;;5010911;28;20549;-67
2023/08/27 08:39:04;;;;;;;2.73;2.50;;;18.10;99.90;;;;;;5002745;28;20468;-66
2023/08/27 08:41:34;;;;;;;5.07;3.10;;;18.20;99.90;;;;;;5009639;28;20470;-67
2023/08/27 08:44:06;;;;;;;3.60;3.10;;;18.30;99.90;;;;;;5011981;28;20513;-66
2023/08/27 08:46:36;;;;;;;3.20;2.43;;;18.40;99.90;;;;;;5011350;28;20504;-66
2023/08/27 08:49:04;;;;;;;4.77;2.70;;;18.50;99.90;;;;;;5007957;28;20463;-66
2023/08/27 08:51:33;;;;;;;7.03;3.73;;;18.50;99.90;;;;;;5009572;28;20470;-67
2023/08/27 08:54:04;;;;;;;10.30;4.00;;;18.50;99.90;;;;;;5011333;28;20442;-66
2023/08/27 08:56:38;;;;;;;10.23;4.10;;;18.60;99.90;;;;;;5010449;28;21003;-67
2023/08/27 08:59:05;;;;;;;4.50;4.10;;;18.70;99.90;;;;;;5006876;28;20463;-66
2023/08/27 09:01:35;;;;;;;7.70;4.30;;;18.80;99.90;;;;;;5011617;28;20474;-67
2023/08/27 09:04:04;;;;;;;6.90;4.37;;;18.90;99.90;;;;;;5011872;28;20520;-67
2023/08/27 09:06:33;;;;;;;5.60;4.00;;;19.10;99.90;;;;;;5010304;28;20446;-67
2023/08/27 09:09:02;;;;;;;8.60;5.77;;;19.20;99.90;;;;;;5010670;28;21013;-67
2023/08/27 09:11:30;;;;;;;10.00;5.90;;;19.30;99.90;;;;;;5011293;28;20987;-67
2023/08/27 09:13:58;;;;;;;11.10;7.03;;;19.50;99.90;;;;;;5010858;28;20458;-67
2023/08/27 09:16:27;;;;;;;6.90;5.73;;;19.70;99.90;;;;;;5011026;28;20915;-67
2023/08/27 09:18:55;;;;;;;6.93;5.63;;;19.80;99.90;;;;;;5008202;28;20466;-67
2023/08/27 09:21:21;;;;;;;9.13;5.70;;;20.00;99.90;;;;;;5011232;28;20470;-66
2023/08/27 09:23:48;;;;;;;10.17;6.20;;;20.20;99.90;;;;;;5007925;28;20633;-67
2023/08/27 09:26:16;;;;;;;6.30;5.70;;;20.40;99.90;;;;;;5011548;28;20446;-66
2023/08/27 09:28:43;;;;;;;6.70;5.83;;;20.30;99.90;;;;;;5010021;28;20935;-66
2023/08/27 09:31:10;;;;;;;8.47;6.03;;;20.40;99.90;;;;;;5011130;28;20474;-66
2023/08/27 09:33:39;;;;;;;6.90;6.03;;;20.40;99.90;;;;;;5005131;28;20987;-67
2023/08/27 09:36:07;;;;;;;9.47;5.80;;;20.50;99.90;;;;;;5008921;28;20454;-66
2023/08/27 09:38:35;;;;;;;8.47;5.77;;;20.60;99.90;;;;;;5010796;28;20836;-68
2023/08/27 09:41:12;;;;;;;9.50;5.43;;;20.80;99.90;;;;;;5006406;28;20466;-66
2023/08/27 09:43:39;;;;;;;6.93;5.20;;;20.90;99.90;;;;;;5011164;28;20450;-66
2023/08/27 09:46:09;;;;;;;5.33;4.40;;;21.10;99.90;;;;;;5010948;28;20458;-66
2023/08/27 09:48:36;;;;;;;2.67;2.40;;;21.30;99.90;;;;;;5010750;28;20538;-66
2023/08/27 09:51:05;;;;;;;3.50;2.40;;;21.60;99.90;;;;;;5010534;28;20513;-66
2023/08/27 09:53:33;;;;;;;4.03;3.20;;;21.90;99.90;;;;;;5010835;28;20447;-67
2023/08/27 09:56:02;;;;;;;4.07;2.43;;;22.20;99.90;;;;;;5003412;28;20453;-67
2023/08/27 09:58:29;;;;;;;2.53;2.20;;;22.50;99.90;;;;;;5009016;28;20520;-67
2023/08/27 10:00:58;;;;;;;2.90;2.00;;;22.50;99.90;;;;;;5003674;28;20470;-67
2023/08/27 10:03:25;;;;;;;2.87;2.20;;;22.80;99.90;;;;;;5010843;28;20501;-67
2023/08/27 10:05:52;;;;;;;2.87;2.10;;;23.10;99.90;;;;;;5005713;28;20504;-66
2023/08/27 10:08:18;;;;;;;2.50;2.30;;;23.00;99.90;;;;;;5008947;28;20446;-67
2023/08/27 10:10:46;;;;;;;2.83;2.63;;;22.90;99.90;;;;;;5006665;28;21121;-66
2023/08/27 10:13:15;;;;;;;2.47;2.20;;;23.10;99.90;;;;;;5011098;28;20609;-66
2023/08/27 10:15:42;;;;;;;2.10;1.90;;;23.10;99.90;;;;;;5010631;28;20458;-67
2023/08/27 10:18:13;;;;;;;2.93;2.27;;;23.00;99.90;;;;;;5009887;28;20564;-67
2023/08/27 10:20:41;;;;;;;4.30;1.93;;;22.90;99.90;;;;;;5008900;28;20474;-66
2023/08/27 10:23:08;;;;;;;1.90;1.60;;;23.00;99.90;;;;;;5010421;28;20449;-65
2023/08/27 10:25:36;;;;;;;6.90;2.17;;;22.90;99.90;;;;;;5010301;28;20450;-65
2023/08/27 10:28:05;;;;;;;3.70;2.47;;;23.00;99.90;;;;;;5006791;28;20816;-67
2023/08/27 10:30:34;;;;;;;2.83;2.23;;;23.00;99.90;;;;;;5005362;28;20536;-66
2023/08/27 10:33:00;;;;;;;2.97;2.50;;;22.80;99.90;;;;;;5010621;28;20442;-67
2023/08/27 10:35:28;;;;;;;4.03;2.73;;;22.50;99.90;;;;;;5010499;28;20493;-67
2023/08/27 10:37:57;;;;;;;3.83;2.40;;;22.40;99.90;;;;;;5007658;28;20485;-67
2023/08/27 10:40:26;;;;;;;4.57;2.73;;;22.30;99.90;;;;;;5000296;28;21365;-67
2023/08/27 10:43:09;;;;;;;2.40;2.17;;;22.10;99.90;;;;;;5004326;28;20873;-66
2023/08/27 10:45:38;;;;;;;4.50;3.00;;;21.80;99.90;;;;;;5010729;28;20537;-66
2023/08/27 10:48:10;;;;;;;3.30;3.00;;;21.80;99.90;;;;;;5008876;28;20450;-67
2023/08/27 10:50:46;;;;;;;3.27;3.00;;;21.90;99.90;;;;;;5008753;28;20482;-68
2023/08/27 10:53:13;;;;;;;3.20;2.90;;;21.90;99.90;;;;;;5008445;28;20532;-67
2023/08/27 10:55:43;;;;;;;3.20;2.90;;;21.80;99.90;;;;;;5004036;28;20458;-66
2023/08/27 10:58:18;;;;;;;3.40;2.83;;;21.80;99.90;;;;;;5004450;28;21254;-66
2023/08/27 11:01:04;;;;;;;3.80;2.80;;;21.70;99.90;;;;;;5007322;28;20473;-67
2023/08/27 11:04:00;;;;;;;6.10;3.13;;;21.50;99.90;;;;;;5010207;28;20454;-67
2023/08/27 11:06:44;;;;;;;3.67;3.33;;;21.30;99.90;;;;;;5010766;28;20551;-67
2023/08/27 11:09:20;;;;;;;4.30;3.17;;;21.20;99.90;;;;;;5011253;28;20874;-66
2023/08/27 11:11:49;;;;;;;5.93;3.43;;;21.10;99.90;;;;;;5013636;28;21005;-67
2023/08/27 11:14:19;;;;;;;7.77;3.77;;;21.00;99.90;;;;;;5013646;28;21006;-67
2023/08/27 11:16:47;;;;;;;9.13;4.40;;;20.90;99.90;;;;;;5009005;28;20493;-67
2023/08/27 11:19:14;;;;;;;6.07;4.03;;;20.70;99.90;;;;;;5013834;28;20460;-67
2023/08/27 11:21:45;;;;;;;6.80;4.30;;;20.60;99.90;;;;;;5013191;28;20597;-66
2023/08/27 11:24:21;;;;;;;4.87;4.37;;;20.50;99.90;;;;;;5011345;28;20450;-67
2023/08/27 11:26:48;;;;;;;7.23;4.70;;;20.40;99.90;;;;;;5010991;28;20439;-66
2023/08/27 11:29:17;;;;;;;5.33;4.80;;;20.30;99.90;;;;;;5011978;28;21062;-66
2023/08/27 11:31:46;;;;;;;10.17;5.33;;;20.30;99.90;;;;;;5012652;28;21148;-66
2023/08/27 11:34:13;;;;;;;9.13;4.50;;;20.20;99.90;;;;;;5013128;28;20557;-66
2023/08/27 11:36:41;;;;;;;9.27;4.90;;;20.00;99.90;;;;;;5013853;28;20450;-68
2023/08/27 11:39:10;;;;;;;6.23;3.40;;;19.80;99.90;;;;;;5008199;28;20948;-65
2023/08/27 11:41:37;;;;;;;8.23;3.47;;;19.10;99.90;;;;;;5013152;28;20474;-66
2023/08/27 11:44:05;;;;;;;3.87;3.30;;;18.50;99.90;;;;;;5010474;28;20508;-67
2023/08/27 11:46:33;;;;;;;4.60;2.57;;;18.10;99.90;;;;;;5013116;28;20446;-67
2023/08/27 11:49:00;;;;;;;6.00;2.73;;;18.00;99.90;;;;;;5013867;28;20450;-67
2023/08/27 11:51:27;;;;;;;6.57;3.47;;;17.90;99.90;;;;;;5008746;28;20475;-67
2023/08/27 11:53:54;;;;;;;5.60;3.33;;;17.90;99.90;;;;;;5012266;28;20459;-66
2023/08/27 11:56:22;;;;;;;6.30;3.60;;;17.90;99.90;;;;;;5013146;28;20426;-67
2023/08/27 11:58:51;;;;;;;9.40;3.40;;;18.00;99.90;;;;;;5008531;28;20538;-67
2023/08/27 12:01:18;;;;;;;5.17;3.17;;;17.90;99.90;;;;;;5009197;28;20478;-67
2023/08/27 12:03:47;;;;;;;5.40;3.87;;;17.90;99.90;;;;;;5010207;28;20429;-67
2023/08/27 12:06:19;;;;;;;4.23;3.53;;;18.00;99.90;;;;;;5013062;28;20446;-67
2023/08/27 12:08:49;;;;;;;6.40;4.00;;;17.90;99.90;;;;;;5012572;28;20429;-67
2023/08/27 12:11:17;;;;;;;4.67;4.17;;;17.90;99.90;;;;;;5012607;28;20466;-67
2023/08/27 12:13:47;;;;;;;7.03;4.57;;;17.80;99.90;;;;;;5012583;28;20545;-66
2023/08/27 12:16:14;;;;;;;8.33;4.33;;;17.70;99.90;;;;;;5010790;28;20994;-67
2023/08/27 12:18:44;;;;;;;6.93;3.70;;;17.70;99.90;;;;;;5011957;28;20896;-67
2023/08/27 12:21:13;;;;;;;6.03;4.33;;;17.60;99.90;;;;;;5011503;28;20916;-67
2023/08/27 12:23:39;;;;;;;13.10;5.40;;;17.60;99.90;;;;;;5012653;28;20804;-66
2023/08/27 12:26:06;;;;;;;6.57;4.07;;;17.60;99.90;;;;;;5012679;28;20417;-67
2023/08/27 12:28:33;;;;;;;7.63;4.60;;;17.60;99.90;;;;;;5012239;28;20524;-67
2023/08/27 12:31:00;;;;;;;6.87;4.53;;;17.70;99.90;;;;;;5011749;28;20458;-66
2023/08/27 12:33:39;;;;;;;6.53;4.47;;;17.80;99.90;;;;;;5012366;28;20534;-66
2023/08/27 12:36:07;;;;;;;5.60;3.37;;;18.10;99.90;;;;;;5011818;28;20544;-66
2023/08/27 12:38:35;;;;;;;4.17;3.77;;;18.30;99.90;;;;;;5011830;28;20490;-66
2023/08/27 12:41:02;;;;;;;4.20;3.30;;;18.50;99.90;;;;;;5009499;28;20460;-66
2023/08/27 12:43:29;;;;;;;4.63;3.40;;;18.50;99.90;;;;;;5007272;28;20509;-67
2023/08/27 12:45:56;;;;;;;3.73;3.40;;;18.70;99.90;;;;;;5012282;28;20477;-67
2023/08/27 12:48:23;;;;;;;3.87;3.20;;;18.80;99.90;;;;;;5012293;28;20474;-66